KCLL - College Station/East, TX, US

Issued at 2334 UTC 17 Jan 2022
Updated at 0438 UTC 18 Jan 2022
Potential Impact None Slight Moderate High
Time0353Z 18/05Z 18/06Z 18/07Z 18/08Z 18/09Z 18/10Z 18/11Z 18/12Z 18/13Z 18/14Z 18/15Z 18/16Z 18/17Z>>
Type OBS PRVL PRVL PRVL PRVL PRVL PRVL PRVL PRVL PRVL PRVL PRVL PRVL PRVL
VIS 10 >6 >6 >6 >6 >6 >6 >6 >6 >6 >6 >6 >6 >6
CIG -- -- -- -- -- -- -- -- -- -- -- -- -- --
Cover CLR SKC SKC SKC SKC SKC SKC SKC SKC SKC SKC SCT SCT SCT
FltCat VFR VFR VFR VFR VFR VFR VFR VFR VFR VFR VFR VFR VFR VFR
WX -- -- -- -- -- -- -- -- -- -- -- -- -- --
WDir 150 VRB VRB VRB VRB VRB VRB VRB VRB VRB VRB 170 170 170
WSpd 4 4 4 4 4 4 4 4 4 4 4 9 9 9
WGst -- -- -- -- -- -- -- -- -- -- -- -- -- --
WSHgt -- -- -- -- -- -- -- -- -- -- -- -- -- --
WSDir -- -- -- -- -- -- -- -- -- -- -- -- -- --
WSSpd -- -- -- -- -- -- -- -- -- -- -- -- -- --
Raw TAF
KCLL 172334Z 1800/1824 VRB04KT P6SM SKC
  FM181500 17009KT P6SM SCT250
  FM181900 18010G19KT P6SM FEW035 SCT250


Raw METAR
KCLL 180353Z AUTO 15004KT 10SM CLR 11/M03 A3009 RMK AO2 SLP187 T01061033
KCLL 180253Z AUTO 15004KT 10SM CLR 12/M02 A3009 RMK AO2 SLP186 T01171022 51006
KCLL 180153Z 15004KT 10SM CLR 12/M02 A3008 RMK AO2 SLP185 T01221017

METAR Board
Radar Display
Forecast Discussion
For situational awareness. Not to be used for flight planning purposes.